sensor_id;sensor_type;location;lat;lon;timestamp;temperature;humidity
7894;DHT22;51343;51.396;6.656;2022-09-01T00:00:38;18.70;1.00
7894;DHT22;51343;51.396;6.656;2022-09-01T00:03:06;18.70;1.00
7894;DHT22;51343;51.396;6.656;2022-09-01T00:05:34;18.60;1.00
7894;DHT22;51343;51.396;6.656;2022-09-01T00:08:01;18.60;1.00
7894;DHT22;51343;51.396;6.656;2022-09-01T00:10:28;18.60;1.00
7894;DHT22;51343;51.396;6.656;2022-09-01T00:12:56;18.50;1.00
7894;DHT22;51343;51.396;6.656;2022-09-01T00:15:23;18.40;1.00
7894;DHT22;51343;51.396;6.656;2022-09-01T00:17:49;18.30;1.00
7894;DHT22;51343;51.396;6.656;2022-09-01T00:20:16;18.30;1.00
7894;DHT22;51343;51.396;6.656;2022-09-01T00:22:42;18.20;1.00
7894;DHT22;51343;51.396;6.656;2022-09-01T00:25:09;18.20;1.00
7894;DHT22;51343;51.396;6.656;2022-09-01T00:27:36;18.10;1.00
7894;DHT22;51343;51.396;6.656;2022-09-01T00:30:04;18.10;1.00
7894;DHT22;51343;51.396;6.656;2022-09-01T00:32:32;18.10;1.00
7894;DHT22;51343;51.396;6.656;2022-09-01T00:34:59;18.00;1.00
7894;DHT22;51343;51.396;6.656;2022-09-01T00:37:25;18.00;1.00
7894;DHT22;51343;51.396;6.656;2022-09-01T00:39:52;17.90;1.00
7894;DHT22;51343;51.396;6.656;2022-09-01T00:42:19;17.80;1.00
7894;DHT22;51343;51.396;6.656;2022-09-01T00:44:45;17.80;1.00
7894;DHT22;51343;51.396;6.656;2022-09-01T00:47:13;17.80;1.00
7894;DHT22;51343;51.396;6.656;2022-09-01T00:49:41;17.70;1.00
7894;DHT22;51343;51.396;6.656;2022-09-01T00:52:09;17.70;1.00
7894;DHT22;51343;51.396;6.656;2022-09-01T00:54:38;17.60;1.00
7894;DHT22;51343;51.396;6.656;2022-09-01T00:57:06;17.60;1.00
7894;DHT22;51343;51.396;6.656;2022-09-01T00:59:33;17.60;1.00
7894;DHT22;51343;51.396;6.656;2022-09-01T01:02:01;17.60;1.00
7894;DHT22;51343;51.396;6.656;2022-09-01T01:04:29;17.60;1.00
7894;DHT22;51343;51.396;6.656;2022-09-01T01:06:56;17.60;1.00
7894;DHT22;51343;51.396;6.656;2022-09-01T01:09:28;17.60;1.00
7894;DHT22;51343;51.396;6.656;2022-09-01T01:11:56;17.60;1.00
7894;DHT22;51343;51.396;6.656;2022-09-01T01:14:24;17.50;1.00
7894;DHT22;51343;51.396;6.656;2022-09-01T01:16:57;17.60;1.00
7894;DHT22;51343;51.396;6.656;2022-09-01T01:19:27;17.60;1.00
7894;DHT22;51343;51.396;6.656;2022-09-01T01:22:17;17.60;1.00
7894;DHT22;51343;51.396;6.656;2022-09-01T01:25:05;17.60;1.00
7894;DHT22;51343;51.396;6.656;2022-09-01T01:27:32;17.70;5.70
7894;DHT22;51343;51.396;6.656;2022-09-01T01:29:59;17.70;1.00
7894;DHT22;51343;51.396;6.656;2022-09-01T01:32:26;17.70;21.30
7894;DHT22;51343;51.396;6.656;2022-09-01T01:34:53;17.70;20.00
7894;DHT22;51343;51.396;6.656;2022-09-01T01:37:20;17.70;29.20
7894;DHT22;51343;51.396;6.656;2022-09-01T01:39:50;17.70;23.40
7894;DHT22;51343;51.396;6.656;2022-09-01T01:42:18;17.70;44.00
7894;DHT22;51343;51.396;6.656;2022-09-01T01:44:45;17.70;38.60
7894;DHT22;51343;51.396;6.656;2022-09-01T01:47:14;17.60;30.30
7894;DHT22;51343;51.396;6.656;2022-09-01T01:49:42;17.60;60.20
7894;DHT22;51343;51.396;6.656;2022-09-01T01:52:09;17.60;39.20
7894;DHT22;51343;51.396;6.656;2022-09-01T01:54:37;17.60;43.00
7894;DHT22;51343;51.396;6.656;2022-09-01T01:57:04;17.60;62.10
7894;DHT22;51343;51.396;6.656;2022-09-01T01:59:33;17.60;37.90
7894;DHT22;51343;51.396;6.656;2022-09-01T02:02:00;17.60;66.40
7894;DHT22;51343;51.396;6.656;2022-09-01T02:04:32;17.60;68.10
7894;DHT22;51343;51.396;6.656;2022-09-01T02:06:59;17.50;76.10
7894;DHT22;51343;51.396;6.656;2022-09-01T02:09:26;17.50;81.90
7894;DHT22;51343;51.396;6.656;2022-09-01T02:11:53;17.50;94.10
7894;DHT22;51343;51.396;6.656;2022-09-01T02:14:22;17.40;99.90
7894;DHT22;51343;51.396;6.656;2022-09-01T02:16:50;17.40;99.90
7894;DHT22;51343;51.396;6.656;2022-09-01T02:19:20;17.40;99.90
7894;DHT22;51343;51.396;6.656;2022-09-01T02:21:46;17.30;99.90
7894;DHT22;51343;51.396;6.656;2022-09-01T02:24:18;17.20;99.90
7894;DHT22;51343;51.396;6.656;2022-09-01T02:26:45;17.20;99.90
7894;DHT22;51343;51.396;6.656;2022-09-01T02:29:18;17.10;99.90
7894;DHT22;51343;51.396;6.656;2022-09-01T02:31:46;17.10;99.90
7894;DHT22;51343;51.396;6.656;2022-09-01T02:34:15;17.00;99.90
7894;DHT22;51343;51.396;6.656;2022-09-01T02:36:43;17.00;99.90
7894;DHT22;51343;51.396;6.656;2022-09-01T02:39:12;17.00;99.90
7894;DHT22;51343;51.396;6.656;2022-09-01T02:41:38;16.90;99.90
7894;DHT22;51343;51.396;6.656;2022-09-01T02:44:05;16.80;99.90
7894;DHT22;51343;51.396;6.656;2022-09-01T02:46:36;16.80;99.90
7894;DHT22;51343;51.396;6.656;2022-09-01T02:49:06;16.70;99.90
7894;DHT22;51343;51.396;6.656;2022-09-01T02:51:41;16.60;99.90
7894;DHT22;51343;51.396;6.656;2022-09-01T02:54:08;16.60;99.90
7894;DHT22;51343;51.396;6.656;2022-09-01T02:56:35;16.50;99.90
7894;DHT22;51343;51.396;6.656;2022-09-01T02:59:02;16.50;99.90
7894;DHT22;51343;51.396;6.656;2022-09-01T03:01:29;16.50;99.90
7894;DHT22;51343;51.396;6.656;2022-09-01T03:03:58;16.50;99.90
7894;DHT22;51343;51.396;6.656;2022-09-01T03:06:25;16.40;99.90
7894;DHT22;51343;51.396;6.656;2022-09-01T03:08:54;16.40;99.90
7894;DHT22;51343;51.396;6.656;2022-09-01T03:11:23;16.30;99.90
7894;DHT22;51343;51.396;6.656;2022-09-01T03:13:50;16.20;99.90
7894;DHT22;51343;51.396;6.656;2022-09-01T03:16:17;16.10;99.90
7894;DHT22;51343;51.396;6.656;2022-09-01T03:18:44;16.10;99.90
7894;DHT22;51343;51.396;6.656;2022-09-01T03:21:11;16.10;99.90
7894;DHT22;51343;51.396;6.656;2022-09-01T03:23:41;16.10;99.90
7894;DHT22;51343;51.396;6.656;2022-09-01T03:26:09;16.10;99.90
7894;DHT22;51343;51.396;6.656;2022-09-01T03:28:36;16.10;99.90
7894;DHT22;51343;51.396;6.656;2022-09-01T03:31:03;16.10;99.90
7894;DHT22;51343;51.396;6.656;2022-09-01T03:33:29;16.10;99.90
7894;DHT22;51343;51.396;6.656;2022-09-01T03:35:56;16.10;99.90
7894;DHT22;51343;51.396;6.656;2022-09-01T03:38:23;16.10;99.90
7894;DHT22;51343;51.396;6.656;2022-09-01T03:40:52;16.10;99.90
7894;DHT22;51343;51.396;6.656;2022-09-01T03:43:24;16.10;99.90
7894;DHT22;51343;51.396;6.656;2022-09-01T03:45:52;16.10;99.90
7894;DHT22;51343;51.396;6.656;2022-09-01T03:48:20;16.20;99.90
7894;DHT22;51343;51.396;6.656;2022-09-01T03:50:46;16.20;99.90
7894;DHT22;51343;51.396;6.656;2022-09-01T03:53:15;16.20;99.90
7894;DHT22;51343;51.396;6.656;2022-09-01T03:55:43;16.10;99.90
7894;DHT22;51343;51.396;6.656;2022-09-01T03:58:10;16.10;99.90
7894;DHT22;51343;51.396;6.656;2022-09-01T04:00:40;16.10;99.90
7894;DHT22;51343;51.396;6.656;2022-09-01T04:03:08;16.10;99.90
7894;DHT22;51343;51.396;6.656;2022-09-01T04:05:36;16.00;99.90
7894;DHT22;51343;51.396;6.656;2022-09-01T04:08:05;16.00;99.90
7894;DHT22;51343;51.396;6.656;2022-09-01T04:10:36;16.00;99.90
7894;DHT22;51343;51.396;6.656;2022-09-01T04:13:03;15.90;99.90
7894;DHT22;51343;51.396;6.656;2022-09-01T04:15:30;15.90;99.90
7894;DHT22;51343;51.396;6.656;2022-09-01T04:17:59;15.80;99.90
7894;DHT22;51343;51.396;6.656;2022-09-01T04:20:34;15.80;99.90
7894;DHT22;51343;51.396;6.656;2022-09-01T04:23:13;15.80;99.90
7894;DHT22;51343;51.396;6.656;2022-09-01T04:25:50;15.70;99.90
7894;DHT22;51343;51.396;6.656;2022-09-01T04:28:18;15.70;99.90
7894;DHT22;51343;51.396;6.656;2022-09-01T04:30:49;15.70;99.90
7894;DHT22;51343;51.396;6.656;2022-09-01T04:33:17;15.70;99.90
7894;DHT22;51343;51.396;6.656;2022-09-01T04:35:45;15.60;99.90
7894;DHT22;51343;51.396;6.656;2022-09-01T04:38:11;15.60;99.90
7894;DHT22;51343;51.396;6.656;2022-09-01T04:40:40;15.50;99.90
7894;DHT22;51343;51.396;6.656;2022-09-01T04:43:07;15.50;1.00
7894;DHT22;51343;51.396;6.656;2022-09-01T04:45:34;15.40;1.00
7894;DHT22;51343;51.396;6.656;2022-09-01T04:48:02;15.40;1.00
7894;DHT22;51343;51.396;6.656;2022-09-01T04:50:31;15.40;1.00
7894;DHT22;51343;51.396;6.656;2022-09-01T04:52:59;15.30;1.00
7894;DHT22;51343;51.396;6.656;2022-09-01T04:55:26;15.40;1.00
7894;DHT22;51343;51.396;6.656;2022-09-01T04:57:54;15.30;1.00
7894;DHT22;51343;51.396;6.656;2022-09-01T05:00:22;15.40;1.00
7894;DHT22;51343;51.396;6.656;2022-09-01T05:02:50;15.40;1.00
7894;DHT22;51343;51.396;6.656;2022-09-01T05:05:18;15.40;1.00
7894;DHT22;51343;51.396;6.656;2022-09-01T05:07:46;15.40;1.00
7894;DHT22;51343;51.396;6.656;2022-09-01T05:10:17;15.40;1.00
7894;DHT22;51343;51.396;6.656;2022-09-01T05:12:44;15.40;1.00
7894;DHT22;51343;51.396;6.656;2022-09-01T05:15:11;15.40;1.00
7894;DHT22;51343;51.396;6.656;2022-09-01T05:17:38;15.40;1.00
7894;DHT22;51343;51.396;6.656;2022-09-01T05:20:06;15.40;1.00
7894;DHT22;51343;51.396;6.656;2022-09-01T05:22:33;15.40;1.00
7894;DHT22;51343;51.396;6.656;2022-09-01T05:25:01;15.40;1.00
7894;DHT22;51343;51.396;6.656;2022-09-01T05:27:32;15.40;1.00
7894;DHT22;51343;51.396;6.656;2022-09-01T05:29:59;15.40;1.00
7894;DHT22;51343;51.396;6.656;2022-09-01T05:32:26;15.50;1.00
7894;DHT22;51343;51.396;6.656;2022-09-01T05:34:53;15.50;1.00
7894;DHT22;51343;51.396;6.656;2022-09-01T05:37:21;15.50;1.00
7894;DHT22;51343;51.396;6.656;2022-09-01T05:39:48;15.50;1.00
7894;DHT22;51343;51.396;6.656;2022-09-01T05:42:17;15.60;1.00
7894;DHT22;51343;51.396;6.656;2022-09-01T05:44:43;15.50;1.00
7894;DHT22;51343;51.396;6.656;2022-09-01T05:47:12;15.50;1.00
7894;DHT22;51343;51.396;6.656;2022-09-01T05:49:39;15.40;1.00
7894;DHT22;51343;51.396;6.656;2022-09-01T05:52:07;15.40;1.00
7894;DHT22;51343;51.396;6.656;2022-09-01T05:54:35;15.50;1.00
7894;DHT22;51343;51.396;6.656;2022-09-01T05:57:02;15.50;1.00
7894;DHT22;51343;51.396;6.656;2022-09-01T05:59:30;15.60;1.00
7894;DHT22;51343;51.396;6.656;2022-09-01T06:01:57;15.60;1.00
7894;DHT22;51343;51.396;6.656;2022-09-01T06:04:25;15.80;1.00
7894;DHT22;51343;51.396;6.656;2022-09-01T06:06:52;15.80;1.00
7894;DHT22;51343;51.396;6.656;2022-09-01T06:09:21;15.90;1.00
7894;DHT22;51343;51.396;6.656;2022-09-01T06:11:48;15.90;1.00
7894;DHT22;51343;51.396;6.656;2022-09-01T06:14:15;16.00;1.00
7894;DHT22;51343;51.396;6.656;2022-09-01T06:16:43;16.10;1.00
7894;DHT22;51343;51.396;6.656;2022-09-01T06:19:11;16.10;1.00
7894;DHT22;51343;51.396;6.656;2022-09-01T06:21:38;16.20;1.00
7894;DHT22;51343;51.396;6.656;2022-09-01T06:24:05;16.30;1.00
7894;DHT22;51343;51.396;6.656;2022-09-01T06:26:32;16.30;1.00
7894;DHT22;51343;51.396;6.656;2022-09-01T06:29:00;16.40;1.00
7894;DHT22;51343;51.396;6.656;2022-09-01T06:31:28;16.50;1.00
7894;DHT22;51343;51.396;6.656;2022-09-01T06:34:00;16.50;1.00
7894;DHT22;51343;51.396;6.656;2022-09-01T06:36:27;16.70;1.00
7894;DHT22;51343;51.396;6.656;2022-09-01T06:38:56;16.80;1.00
7894;DHT22;51343;51.396;6.656;2022-09-01T06:41:25;16.80;1.00
7894;DHT22;51343;51.396;6.656;2022-09-01T06:43:51;16.80;1.00
7894;DHT22;51343;51.396;6.656;2022-09-01T06:46:19;16.80;1.00
7894;DHT22;51343;51.396;6.656;2022-09-01T06:48:46;16.90;1.00
7894;DHT22;51343;51.396;6.656;2022-09-01T06:51:15;16.90;1.00
7894;DHT22;51343;51.396;6.656;2022-09-01T06:53:43;16.90;1.00
7894;DHT22;51343;51.396;6.656;2022-09-01T06:56:11;16.90;1.00
7894;DHT22;51343;51.396;6.656;2022-09-01T06:58:39;17.00;1.00
7894;DHT22;51343;51.396;6.656;2022-09-01T07:01:09;17.00;1.00
7894;DHT22;51343;51.396;6.656;2022-09-01T07:03:40;17.10;1.00
7894;DHT22;51343;51.396;6.656;2022-09-01T07:06:07;17.20;1.00
7894;DHT22;51343;51.396;6.656;2022-09-01T07:08:36;17.50;1.00
7894;DHT22;51343;51.396;6.656;2022-09-01T07:11:04;17.50;1.00
7894;DHT22;51343;51.396;6.656;2022-09-01T07:13:31;17.70;1.00
7894;DHT22;51343;51.396;6.656;2022-09-01T07:15:59;17.70;1.00
7894;DHT22;51343;51.396;6.656;2022-09-01T07:18:26;17.80;1.00
7894;DHT22;51343;51.396;6.656;2022-09-01T07:20:53;17.90;1.00
7894;DHT22;51343;51.396;6.656;2022-09-01T07:23:20;17.90;1.00
7894;DHT22;51343;51.396;6.656;2022-09-01T07:25:50;18.00;1.00
7894;DHT22;51343;51.396;6.656;2022-09-01T07:28:20;18.10;1.00
7894;DHT22;51343;51.396;6.656;2022-09-01T07:30:48;18.30;1.00
7894;DHT22;51343;51.396;6.656;2022-09-01T07:33:16;18.30;1.00
7894;DHT22;51343;51.396;6.656;2022-09-01T07:35:45;18.40;1.00
7894;DHT22;51343;51.396;6.656;2022-09-01T07:38:12;18.50;99.90
7894;DHT22;51343;51.396;6.656;2022-09-01T07:40:39;18.60;99.90
7894;DHT22;51343;51.396;6.656;2022-09-01T07:43:16;18.70;99.90
7894;DHT22;51343;51.396;6.656;2022-09-01T07:45:46;18.70;99.90
7894;DHT22;51343;51.396;6.656;2022-09-01T07:48:15;18.90;99.90
7894;DHT22;51343;51.396;6.656;2022-09-01T07:50:42;19.00;99.90
7894;DHT22;51343;51.396;6.656;2022-09-01T07:53:12;19.00;99.90
7894;DHT22;51343;51.396;6.656;2022-09-01T07:55:42;19.10;99.90
7894;DHT22;51343;51.396;6.656;2022-09-01T07:58:11;19.20;99.90
7894;DHT22;51343;51.396;6.656;2022-09-01T08:00:38;19.20;99.90
7894;DHT22;51343;51.396;6.656;2022-09-01T08:03:07;19.20;99.90
7894;DHT22;51343;51.396;6.656;2022-09-01T08:05:34;19.30;99.90
7894;DHT22;51343;51.396;6.656;2022-09-01T08:08:01;19.40;99.90
7894;DHT22;51343;51.396;6.656;2022-09-01T08:10:27;19.40;99.90
7894;DHT22;51343;51.396;6.656;2022-09-01T08:12:54;19.40;99.90
7894;DHT22;51343;51.396;6.656;2022-09-01T08:15:22;19.50;99.90
7894;DHT22;51343;51.396;6.656;2022-09-01T08:17:49;19.60;99.90
7894;DHT22;51343;51.396;6.656;2022-09-01T08:20:16;19.70;99.90
7894;DHT22;51343;51.396;6.656;2022-09-01T08:22:42;19.80;99.90
7894;DHT22;51343;51.396;6.656;2022-09-01T08:25:09;19.90;99.90
7894;DHT22;51343;51.396;6.656;2022-09-01T08:27:36;20.00;99.90
7894;DHT22;51343;51.396;6.656;2022-09-01T08:30:05;20.20;99.90
7894;DHT22;51343;51.396;6.656;2022-09-01T08:32:34;20.30;74.70
7894;DHT22;51343;51.396;6.656;2022-09-01T08:35:02;20.30;5.20
7894;DHT22;51343;51.396;6.656;2022-09-01T08:37:30;20.30;18.40
7894;DHT22;51343;51.396;6.656;2022-09-01T08:39:56;20.60;6.80
7894;DHT22;51343;51.396;6.656;2022-09-01T08:42:26;20.60;1.00
7894;DHT22;51343;51.396;6.656;2022-09-01T08:44:57;20.70;1.00
7894;DHT22;51343;51.396;6.656;2022-09-01T08:47:28;20.70;1.00
7894;DHT22;51343;51.396;6.656;2022-09-01T08:49:57;20.70;1.00
7894;DHT22;51343;51.396;6.656;2022-09-01T08:52:25;20.80;1.00
7894;DHT22;51343;51.396;6.656;2022-09-01T08:54:54;20.90;1.00
7894;DHT22;51343;51.396;6.656;2022-09-01T08:57:25;21.00;1.00
7894;DHT22;51343;51.396;6.656;2022-09-01T08:59:54;21.00;1.00
7894;DHT22;51343;51.396;6.656;2022-09-01T09:02:25;21.20;1.00
7894;DHT22;51343;51.396;6.656;2022-09-01T09:04:59;21.30;1.00
7894;DHT22;51343;51.396;6.656;2022-09-01T09:07:31;21.40;1.00
7894;DHT22;51343;51.396;6.656;2022-09-01T09:10:02;21.60;1.00
7894;DHT22;51343;51.396;6.656;2022-09-01T09:12:35;21.60;1.00
7894;DHT22;51343;51.396;6.656;2022-09-01T09:15:16;21.70;1.00
7894;DHT22;51343;51.396;6.656;2022-09-01T09:17:45;21.80;1.00
7894;DHT22;51343;51.396;6.656;2022-09-01T09:20:15;21.80;1.00
7894;DHT22;51343;51.396;6.656;2022-09-01T09:22:42;21.80;1.00
7894;DHT22;51343;51.396;6.656;2022-09-01T09:25:11;21.90;1.00
7894;DHT22;51343;51.396;6.656;2022-09-01T09:27:39;22.00;1.00
7894;DHT22;51343;51.396;6.656;2022-09-01T09:30:07;22.10;1.00
7894;DHT22;51343;51.396;6.656;2022-09-01T09:32:42;22.10;1.00
7894;DHT22;51343;51.396;6.656;2022-09-01T09:35:17;22.20;1.00
7894;DHT22;51343;51.396;6.656;2022-09-01T09:37:44;22.40;1.00
7894;DHT22;51343;51.396;6.656;2022-09-01T09:40:12;22.60;1.00
7894;DHT22;51343;51.396;6.656;2022-09-01T09:42:40;22.50;1.00
7894;DHT22;51343;51.396;6.656;2022-09-01T09:45:20;22.50;1.00
7894;DHT22;51343;51.396;6.656;2022-09-01T09:47:47;22.70;1.00
7894;DHT22;51343;51.396;6.656;2022-09-01T09:50:20;23.00;1.00
7894;DHT22;51343;51.396;6.656;2022-09-01T09:52:48;23.10;1.00
7894;DHT22;51343;51.396;6.656;2022-09-01T09:55:25;23.20;1.00
7894;DHT22;51343;51.396;6.656;2022-09-01T09:57:54;23.30;1.00
7894;DHT22;51343;51.396;6.656;2022-09-01T10:00:22;23.40;1.00
7894;DHT22;51343;51.396;6.656;2022-09-01T10:02:53;23.40;1.00
7894;DHT22;51343;51.396;6.656;2022-09-01T10:05:24;23.50;1.00
7894;DHT22;51343;51.396;6.656;2022-09-01T10:07:52;23.60;1.00
7894;DHT22;51343;51.396;6.656;2022-09-01T10:10:27;23.90;1.00
7894;DHT22;51343;51.396;6.656;2022-09-01T10:12:55;24.10;1.00
7894;DHT22;51343;51.396;6.656;2022-09-01T10:15:22;24.10;1.00
7894;DHT22;51343;51.396;6.656;2022-09-01T10:17:49;24.20;1.00
7894;DHT22;51343;51.396;6.656;2022-09-01T10:20:17;24.30;1.00
7894;DHT22;51343;51.396;6.656;2022-09-01T10:22:47;24.40;1.00
7894;DHT22;51343;51.396;6.656;2022-09-01T10:25:15;24.80;1.00
7894;DHT22;51343;51.396;6.656;2022-09-01T10:27:43;24.70;1.00
7894;DHT22;51343;51.396;6.656;2022-09-01T10:30:13;25.00;1.00
7894;DHT22;51343;51.396;6.656;2022-09-01T10:32:41;25.70;1.00
7894;DHT22;51343;51.396;6.656;2022-09-01T10:35:09;25.60;1.00
7894;DHT22;51343;51.396;6.656;2022-09-01T10:37:38;25.90;1.00
7894;DHT22;51343;51.396;6.656;2022-09-01T10:40:13;25.90;1.00
7894;DHT22;51343;51.396;6.656;2022-09-01T10:42:41;25.90;1.00
7894;DHT22;51343;51.396;6.656;2022-09-01T10:45:15;26.30;1.00
7894;DHT22;51343;51.396;6.656;2022-09-01T10:47:43;26.70;1.00
7894;DHT22;51343;51.396;6.656;2022-09-01T10:50:21;26.80;99.90
7894;DHT22;51343;51.396;6.656;2022-09-01T10:52:53;27.10;99.90
7894;DHT22;51343;51.396;6.656;2022-09-01T10:55:22;27.20;99.90
7894;DHT22;51343;51.396;6.656;2022-09-01T10:57:51;27.20;99.90
7894;DHT22;51343;51.396;6.656;2022-09-01T11:06:04;26.90;99.90
7894;DHT22;51343;51.396;6.656;2022-09-01T11:08:42;27.00;99.90
7894;DHT22;51343;51.396;6.656;2022-09-01T11:11:15;26.90;99.90
7894;DHT22;51343;51.396;6.656;2022-09-01T11:13:47;26.80;99.90
7894;DHT22;51343;51.396;6.656;2022-09-01T11:16:29;26.70;99.90
7894;DHT22;51343;51.396;6.656;2022-09-01T11:19:14;26.70;99.90
7894;DHT22;51343;51.396;6.656;2022-09-01T11:21:41;27.00;99.90
7894;DHT22;51343;51.396;6.656;2022-09-01T11:27:01;27.90;99.90
7894;DHT22;51343;51.396;6.656;2022-09-01T11:32:13;29.50;99.90
7894;DHT22;51343;51.396;6.656;2022-09-01T11:34:40;29.10;99.90
7894;DHT22;51343;51.396;6.656;2022-09-01T11:37:10;28.90;99.90
7894;DHT22;51343;51.396;6.656;2022-09-01T11:39:40;28.80;99.90
7894;DHT22;51343;51.396;6.656;2022-09-01T11:42:11;28.60;99.90
7894;DHT22;51343;51.396;6.656;2022-09-01T11:44:44;28.20;99.90
7894;DHT22;51343;51.396;6.656;2022-09-01T11:47:16;27.80;99.90
7894;DHT22;51343;51.396;6.656;2022-09-01T11:49:48;28.00;99.90
7894;DHT22;51343;51.396;6.656;2022-09-01T11:52:15;28.20;99.90
7894;DHT22;51343;51.396;6.656;2022-09-01T11:54:42;28.70;99.90
7894;DHT22;51343;51.396;6.656;2022-09-01T11:57:20;28.80;99.90
7894;DHT22;51343;51.396;6.656;2022-09-01T11:59:47;28.70;99.90
7894;DHT22;51343;51.396;6.656;2022-09-01T12:02:17;28.80;99.90
7894;DHT22;51343;51.396;6.656;2022-09-01T12:04:45;28.60;99.90
7894;DHT22;51343;51.396;6.656;2022-09-01T12:07:13;28.70;99.90
7894;DHT22;51343;51.396;6.656;2022-09-01T12:09:49;28.50;99.90
7894;DHT22;51343;51.396;6.656;2022-09-01T12:12:33;29.20;99.90
7894;DHT22;51343;51.396;6.656;2022-09-01T12:15:01;29.40;99.90
7894;DHT22;51343;51.396;6.656;2022-09-01T12:17:29;28.40;99.90
7894;DHT22;51343;51.396;6.656;2022-09-01T12:20:00;27.70;99.90
7894;DHT22;51343;51.396;6.656;2022-09-01T12:22:44;27.40;99.90
7894;DHT22;51343;51.396;6.656;2022-09-01T12:25:16;27.80;99.90
7894;DHT22;51343;51.396;6.656;2022-09-01T12:27:45;28.50;99.90
7894;DHT22;51343;51.396;6.656;2022-09-01T12:30:11;28.80;99.90
7894;DHT22;51343;51.396;6.656;2022-09-01T12:32:38;28.60;99.90
7894;DHT22;51343;51.396;6.656;2022-09-01T12:35:10;28.50;99.90
7894;DHT22;51343;51.396;6.656;2022-09-01T12:37:39;27.60;99.90
7894;DHT22;51343;51.396;6.656;2022-09-01T12:40:06;27.70;99.90
7894;DHT22;51343;51.396;6.656;2022-09-01T12:42:49;27.90;99.90
7894;DHT22;51343;51.396;6.656;2022-09-01T12:47:58;28.10;99.90
7894;DHT22;51343;51.396;6.656;2022-09-01T12:50:35;28.50;99.90
7894;DHT22;51343;51.396;6.656;2022-09-01T12:53:02;28.70;99.90
7894;DHT22;51343;51.396;6.656;2022-09-01T12:55:30;28.10;99.90
7894;DHT22;51343;51.396;6.656;2022-09-01T12:57:59;28.20;99.90
7894;DHT22;51343;51.396;6.656;2022-09-01T13:00:27;28.30;99.90
7894;DHT22;51343;51.396;6.656;2022-09-01T13:03:03;27.90;99.90
7894;DHT22;51343;51.396;6.656;2022-09-01T13:05:31;28.20;99.90
7894;DHT22;51343;51.396;6.656;2022-09-01T13:07:59;28.60;99.90
7894;DHT22;51343;51.396;6.656;2022-09-01T13:10:29;29.10;99.90
7894;DHT22;51343;51.396;6.656;2022-09-01T13:12:56;28.60;99.90
7894;DHT22;51343;51.396;6.656;2022-09-01T13:15:24;27.90;99.90
7894;DHT22;51343;51.396;6.656;2022-09-01T13:17:52;27.30;99.90
7894;DHT22;51343;51.396;6.656;2022-09-01T13:20:18;27.50;99.90
7894;DHT22;51343;51.396;6.656;2022-09-01T13:22:45;27.60;99.90
7894;DHT22;51343;51.396;6.656;2022-09-01T13:25:13;27.80;99.90
7894;DHT22;51343;51.396;6.656;2022-09-01T13:27:42;28.30;99.90
7894;DHT22;51343;51.396;6.656;2022-09-01T13:30:09;28.90;99.90
7894;DHT22;51343;51.396;6.656;2022-09-01T13:32:38;29.60;99.90
7894;DHT22;51343;51.396;6.656;2022-09-01T13:35:05;29.10;99.90
7894;DHT22;51343;51.396;6.656;2022-09-01T13:37:32;28.30;99.90
7894;DHT22;51343;51.396;6.656;2022-09-01T13:39:58;28.00;99.90
7894;DHT22;51343;51.396;6.656;2022-09-01T13:42:25;27.20;99.90
7894;DHT22;51343;51.396;6.656;2022-09-01T13:44:52;27.00;99.90
7894;DHT22;51343;51.396;6.656;2022-09-01T13:47:18;27.80;99.90
7894;DHT22;51343;51.396;6.656;2022-09-01T13:49:47;28.40;99.90
7894;DHT22;51343;51.396;6.656;2022-09-01T13:52:13;28.00;99.90
7894;DHT22;51343;51.396;6.656;2022-09-01T13:54:40;27.90;99.90
7894;DHT22;51343;51.396;6.656;2022-09-01T13:57:08;27.50;99.90
7894;DHT22;51343;51.396;6.656;2022-09-01T13:59:35;27.00;99.90
7894;DHT22;51343;51.396;6.656;2022-09-01T14:02:02;26.90;99.90
7894;DHT22;51343;51.396;6.656;2022-09-01T14:04:29;27.00;99.90
7894;DHT22;51343;51.396;6.656;2022-09-01T14:06:57;27.60;99.90
7894;DHT22;51343;51.396;6.656;2022-09-01T14:09:24;28.40;99.90
7894;DHT22;51343;51.396;6.656;2022-09-01T14:11:51;28.30;99.90
7894;DHT22;51343;51.396;6.656;2022-09-01T14:14:18;28.00;99.90
7894;DHT22;51343;51.396;6.656;2022-09-01T14:16:45;27.80;99.90
7894;DHT22;51343;51.396;6.656;2022-09-01T14:19:11;28.10;99.90
7894;DHT22;51343;51.396;6.656;2022-09-01T14:21:38;28.60;99.90
7894;DHT22;51343;51.396;6.656;2022-09-01T14:24:06;29.00;99.90
7894;DHT22;51343;51.396;6.656;2022-09-01T14:26:33;29.10;99.90
7894;DHT22;51343;51.396;6.656;2022-09-01T14:29:00;28.90;99.90
7894;DHT22;51343;51.396;6.656;2022-09-01T14:31:27;28.40;99.90
7894;DHT22;51343;51.396;6.656;2022-09-01T14:33:54;28.20;99.90
7894;DHT22;51343;51.396;6.656;2022-09-01T14:36:22;28.60;99.90
7894;DHT22;51343;51.396;6.656;2022-09-01T14:38:49;28.70;99.90
7894;DHT22;51343;51.396;6.656;2022-09-01T14:41:18;28.80;99.90
7894;DHT22;51343;51.396;6.656;2022-09-01T14:43:47;28.30;99.90
7894;DHT22;51343;51.396;6.656;2022-09-01T14:46:14;27.90;99.90
7894;DHT22;51343;51.396;6.656;2022-09-01T14:48:43;27.20;99.90
7894;DHT22;51343;51.396;6.656;2022-09-01T14:51:16;26.80;99.90
7894;DHT22;51343;51.396;6.656;2022-09-01T14:53:44;26.50;98.40
7894;DHT22;51343;51.396;6.656;2022-09-01T14:56:10;26.50;99.90
7894;DHT22;51343;51.396;6.656;2022-09-01T14:58:39;27.00;99.90
7894;DHT22;51343;51.396;6.656;2022-09-01T15:01:06;27.10;99.90
7894;DHT22;51343;51.396;6.656;2022-09-01T15:03:35;27.40;99.90
7894;DHT22;51343;51.396;6.656;2022-09-01T15:06:02;27.30;99.90
7894;DHT22;51343;51.396;6.656;2022-09-01T15:08:28;27.10;99.90
7894;DHT22;51343;51.396;6.656;2022-09-01T15:10:55;26.90;99.90
7894;DHT22;51343;51.396;6.656;2022-09-01T15:13:21;27.00;99.90
7894;DHT22;51343;51.396;6.656;2022-09-01T15:15:49;27.10;99.90
7894;DHT22;51343;51.396;6.656;2022-09-01T15:18:17;27.00;99.90
7894;DHT22;51343;51.396;6.656;2022-09-01T15:20:43;26.70;99.90
7894;DHT22;51343;51.396;6.656;2022-09-01T15:23:11;26.60;91.60
7894;DHT22;51343;51.396;6.656;2022-09-01T15:25:37;26.30;87.20
7894;DHT22;51343;51.396;6.656;2022-09-01T15:28:04;26.20;92.60
7894;DHT22;51343;51.396;6.656;2022-09-01T15:30:31;26.20;89.80
7894;DHT22;51343;51.396;6.656;2022-09-01T15:32:59;26.10;56.90
7894;DHT22;51343;51.396;6.656;2022-09-01T15:35:26;25.60;36.70
7894;DHT22;51343;51.396;6.656;2022-09-01T15:37:53;25.30;34.60
7894;DHT22;51343;51.396;6.656;2022-09-01T15:40:21;25.20;47.70
7894;DHT22;51343;51.396;6.656;2022-09-01T15:42:47;25.20;26.80
7894;DHT22;51343;51.396;6.656;2022-09-01T15:45:16;25.10;28.10
7894;DHT22;51343;51.396;6.656;2022-09-01T15:47:44;25.30;48.40
7894;DHT22;51343;51.396;6.656;2022-09-01T15:50:14;25.30;32.60
7894;DHT22;51343;51.396;6.656;2022-09-01T15:52:48;25.50;51.10
7894;DHT22;51343;51.396;6.656;2022-09-01T15:55:15;25.50;30.50
7894;DHT22;51343;51.396;6.656;2022-09-01T15:57:42;25.50;51.90
7894;DHT22;51343;51.396;6.656;2022-09-01T16:00:09;25.50;24.30
7894;DHT22;51343;51.396;6.656;2022-09-01T16:02:36;25.50;42.60
7894;DHT22;51343;51.396;6.656;2022-09-01T16:05:03;25.50;47.20
7894;DHT22;51343;51.396;6.656;2022-09-01T16:07:32;25.50;39.20
7894;DHT22;51343;51.396;6.656;2022-09-01T16:09:59;25.40;39.60
7894;DHT22;51343;51.396;6.656;2022-09-01T16:12:25;25.40;17.50
7894;DHT22;51343;51.396;6.656;2022-09-01T16:14:53;25.20;36.80